Manchester, Connecticut
Current Conditions -  °F | °C
As of 4:01 AM on Wednesday 22 Oct 2014 (Local Time) from KHFD Reporting Station
Overcast Overcast  
Wind Chill: 54°   Ceiling: 1400
Heat Index: 54°   Visibility: 10mi
Dew Point: 50°   Wind: 10mph
Humidity: 86%   Direction: 10°N
Pressure: 29.95"   Gusts: NA
Location:  41.78°N, 72.52°W
Report Text: KHFD 220801Z AUTO 01009KT 10SM OVC014 12/10 A2995 RMK AO2 T01220100
Loading
Personal Weather Stations






























Interactive Weather Map
Tropical Storm Tracking
New forecast layout! Learn more

10-Day Weather Forecast

Advertisements
Track Severe Weather on mobile